createdAt,value
2022-08-05T00:01:36.295Z,19.27
2022-08-05T00:04:19.621Z,19.22
2022-08-05T00:06:51.713Z,19.18
2022-08-05T00:09:24.198Z,19.15
2022-08-05T00:11:56.093Z,19.12
2022-08-05T00:14:31.393Z,19.07
2022-08-05T00:17:04.287Z,19.05
2022-08-05T00:20:02.489Z,19.01
2022-08-05T00:22:32.824Z,18.96
2022-08-05T00:25:08.436Z,18.93
2022-08-05T00:27:42.906Z,18.91
2022-08-05T00:30:14.147Z,18.88
2022-08-05T00:32:42.514Z,18.86
2022-08-05T00:35:10.860Z,18.86
2022-08-05T00:37:52.707Z,18.84
2022-08-05T00:40:29.006Z,18.84
2022-08-05T00:43:00.797Z,18.84
2022-08-05T00:45:42.898Z,18.84
2022-08-05T00:48:15.732Z,18.83
2022-08-05T00:50:46.695Z,18.81
2022-08-05T00:54:01.481Z,18.80
2022-08-05T00:56:07.989Z,18.77
2022-08-05T00:58:37.055Z,18.77
2022-08-05T01:01:08.565Z,18.77
2022-08-05T01:03:39.027Z,18.77
2022-08-05T01:06:14.319Z,18.79
2022-08-05T01:08:44.979Z,18.79
2022-08-05T01:11:33.619Z,18.79
2022-08-05T01:14:31.801Z,18.78
2022-08-05T01:17:14.043Z,18.77
2022-08-05T01:20:27.078Z,18.75
2022-08-05T01:23:34.828Z,18.69
2022-08-05T01:26:14.199Z,18.63
2022-08-05T01:28:49.266Z,18.56
2022-08-05T01:31:28.139Z,18.54
2022-08-05T01:34:11.056Z,18.51
2022-08-05T01:36:47.785Z,18.47
2022-08-05T01:39:45.840Z,18.44
2022-08-05T01:42:09.620Z,18.42
2022-08-05T01:44:39.660Z,18.38
2022-08-05T01:47:10.819Z,18.36
2022-08-05T01:50:01.514Z,18.32
2022-08-05T01:52:32.869Z,18.29
2022-08-05T01:55:06.961Z,18.26
2022-08-05T01:58:09.944Z,18.23
2022-08-05T02:00:31.775Z,18.20
2022-08-05T02:03:24.447Z,18.19
2022-08-05T02:06:01.001Z,18.14
2022-08-05T02:08:33.931Z,18.09
2022-08-05T02:11:11.763Z,18.06
2022-08-05T02:13:56.507Z,18.03
2022-08-05T02:16:35.067Z,17.99
2022-08-05T02:19:08.795Z,17.96
2022-08-05T02:21:49.297Z,17.91
2022-08-05T02:24:23.014Z,17.86
2022-08-05T02:26:59.656Z,17.82
2022-08-05T02:29:58.402Z,17.82
2022-08-05T02:32:24.229Z,17.81
2022-08-05T02:35:09.582Z,17.80
2022-08-05T02:37:47.836Z,17.78
2022-08-05T02:40:24.684Z,17.76
2022-08-05T02:42:55.372Z,17.73
2022-08-05T02:45:25.599Z,17.68
2022-08-05T02:47:58.489Z,17.66
2022-08-05T02:50:38.389Z,17.62
2022-08-05T02:53:18.629Z,17.61
2022-08-05T02:55:54.190Z,17.60
2022-08-05T02:58:30.308Z,17.59
2022-08-05T03:01:02.721Z,17.57
2022-08-05T03:03:33.777Z,17.55
2022-08-05T03:06:55.446Z,17.52
2022-08-05T03:09:17.655Z,17.51
2022-08-05T03:11:56.477Z,17.49
2022-08-05T03:14:26.230Z,17.42
2022-08-05T03:16:54.554Z,17.39
2022-08-05T03:19:33.776Z,17.37
2022-08-05T03:22:04.830Z,17.35
2022-08-05T03:24:33.732Z,17.34
2022-08-05T03:27:03.854Z,17.30
2022-08-05T03:29:44.877Z,17.25
2022-08-05T03:32:30.846Z,17.27
2022-08-05T03:35:00.770Z,17.28
2022-08-05T03:37:31.401Z,17.30
2022-08-05T03:40:11.737Z,17.34
2022-08-05T03:42:41.812Z,17.36
2022-08-05T03:45:23.101Z,17.33
2022-08-05T03:47:56.709Z,17.27
2022-08-05T03:50:33.770Z,17.24
2022-08-05T03:55:51.763Z,17.23
2022-08-05T03:56:18.019Z,17.27
2022-08-05T03:59:03.987Z,17.34
2022-08-05T04:01:40.418Z,17.38
2022-08-05T04:04:11.034Z,17.43
2022-08-05T04:06:47.587Z,17.49
2022-08-05T04:09:26.086Z,17.59
2022-08-05T04:11:57.101Z,17.76
2022-08-05T04:14:29.823Z,17.96
2022-08-05T04:17:00.900Z,18.23
2022-08-05T04:19:31.450Z,18.51
2022-08-05T04:22:08.180Z,18.75
2022-08-05T04:24:43.954Z,18.99
2022-08-05T04:27:19.902Z,19.21
2022-08-05T04:30:03.815Z,19.46
2022-08-05T04:32:33.481Z,19.70
2022-08-05T04:35:04.651Z,19.93
2022-08-05T04:38:01.075Z,20.11
2022-08-05T04:40:22.379Z,20.26
2022-08-05T04:42:51.351Z,20.34
2022-08-05T04:45:23.033Z,20.52
2022-08-05T04:48:18.387Z,20.71
2022-08-05T04:51:02.513Z,20.85
2022-08-05T04:53:39.397Z,21.02
2022-08-05T04:56:32.306Z,21.15
2022-08-05T04:58:57.409Z,21.31
2022-08-05T05:02:06.279Z,21.50
2022-08-05T05:04:13.736Z,21.75
2022-08-05T05:06:44.632Z,21.98
2022-08-05T05:09:18.328Z,22.12
2022-08-05T05:11:54.499Z,22.34
2022-08-05T05:14:31.478Z,22.60
2022-08-05T05:17:01.162Z,22.92
2022-08-05T05:19:38.874Z,23.23
2022-08-05T05:22:24.152Z,23.37
2022-08-05T05:24:57.470Z,23.47
2022-08-05T05:27:41.819Z,23.49
2022-08-05T05:30:29.077Z,23.61
2022-08-05T05:33:08.879Z,23.71
2022-08-05T05:35:47.526Z,23.72
2022-08-05T05:38:22.560Z,23.88
2022-08-05T05:40:57.016Z,24.10
2022-08-05T05:43:57.293Z,24.21
2022-08-05T05:46:17.483Z,24.38
2022-08-05T05:48:48.857Z,24.63
2022-08-05T05:51:25.696Z,24.69
2022-08-05T05:53:58.731Z,24.75
2022-08-05T05:56:32.656Z,24.94
2022-08-05T05:59:06.213Z,24.91
2022-08-05T06:01:39.331Z,25.03
2022-08-05T06:04:11.366Z,25.15
2022-08-05T06:06:47.570Z,25.11
2022-08-05T06:09:25.956Z,25.01
2022-08-05T06:12:05.058Z,25.08
2022-08-05T06:14:34.827Z,25.32
2022-08-05T06:17:21.932Z,25.20
2022-08-05T06:19:56.757Z,25.05
2022-08-05T06:22:34.097Z,25.25
2022-08-05T06:25:25.136Z,25.38
2022-08-05T06:28:10.932Z,25.63
2022-08-05T06:30:41.828Z,25.79
2022-08-05T06:33:10.809Z,25.59
2022-08-05T06:36:07.802Z,25.68
2022-08-05T06:38:36.296Z,25.76
2022-08-05T06:41:08.028Z,26.07
2022-08-05T06:43:57.926Z,26.48
2022-08-05T06:46:30.255Z,26.29
2022-08-05T06:49:01.880Z,26.20
2022-08-05T06:51:34.718Z,26.26
2022-08-05T06:54:04.546Z,26.44
2022-08-05T06:56:34.905Z,26.57
2022-08-05T06:59:08.398Z,26.70
2022-08-05T07:01:37.086Z,26.50
2022-08-05T07:04:09.651Z,26.34
2022-08-05T07:06:38.445Z,26.31
2022-08-05T07:09:06.856Z,26.55
2022-08-05T07:11:36.869Z,26.63
2022-08-05T07:14:29.573Z,26.62
2022-08-05T07:17:58.779Z,26.44
2022-08-05T07:22:42.668Z,26.62
2022-08-05T07:25:54.392Z,26.69
2022-08-05T07:28:04.174Z,26.87
2022-08-05T07:30:39.774Z,27.22
2022-08-05T07:33:16.036Z,27.29
2022-08-05T07:36:02.114Z,27.23
2022-08-05T07:38:43.086Z,27.46
2022-08-05T07:42:09.287Z,27.53
2022-08-05T07:44:18.477Z,27.74
2022-08-05T07:46:49.488Z,28.12
2022-08-05T07:49:20.001Z,28.39
2022-08-05T07:51:54.017Z,28.29
2022-08-05T07:54:33.295Z,28.09
2022-08-05T07:57:16.877Z,28.35
2022-08-05T07:59:55.112Z,28.43
2022-08-05T08:02:30.758Z,28.49
2022-08-05T08:05:01.314Z,28.63
2022-08-05T08:07:39.601Z,28.76
2022-08-05T08:10:20.538Z,29.06
2022-08-05T08:12:50.532Z,29.47
2022-08-05T08:16:33.865Z,29.95
2022-08-05T08:18:13.761Z,29.99
2022-08-05T08:21:02.729Z,29.99
2022-08-05T08:24:01.931Z,30.01
2022-08-05T08:26:26.806Z,30.01
2022-08-05T08:29:21.900Z,29.90
2022-08-05T08:31:51.034Z,30.04
2022-08-05T08:34:30.507Z,30.22
2022-08-05T08:37:04.617Z,30.60
2022-08-05T08:39:37.356Z,30.97
2022-08-05T08:42:34.063Z,31.06
2022-08-05T08:45:24.353Z,31.22
2022-08-05T08:48:07.496Z,31.37
2022-08-05T08:51:03.631Z,31.65
2022-08-05T08:53:45.055Z,32.08
2022-08-05T08:56:13.757Z,32.07
2022-08-05T08:58:44.496Z,32.32
2022-08-05T09:01:19.643Z,32.34
2022-08-05T09:03:58.299Z,32.60
2022-08-05T09:06:30.639Z,32.60
2022-08-05T09:09:01.796Z,32.87
2022-08-05T09:11:50.853Z,33.04
2022-08-05T09:14:59.127Z,33.34
2022-08-05T09:17:40.658Z,33.79
2022-08-05T09:20:05.864Z,33.57
2022-08-05T09:23:18.521Z,33.58
2022-08-05T09:26:02.193Z,33.65
2022-08-05T09:28:34.826Z,33.68
2022-08-05T09:31:23.213Z,33.69
2022-08-05T09:34:01.586Z,33.71
2022-08-05T09:36:56.143Z,34.07
2022-08-05T09:39:45.679Z,34.48
2022-08-05T09:42:28.277Z,34.88
2022-08-05T09:45:17.844Z,34.75
2022-08-05T09:47:57.526Z,34.53
2022-08-05T09:50:44.247Z,34.60
2022-08-05T09:53:23.147Z,34.82
2022-08-05T09:56:11.401Z,35.28
2022-08-05T09:58:47.710Z,35.15
2022-08-05T10:01:32.012Z,34.75
2022-08-05T10:04:10.652Z,34.65
2022-08-05T10:06:54.864Z,34.59
2022-08-05T10:09:29.519Z,34.78
2022-08-05T10:12:18.581Z,35.09
2022-08-05T10:15:23.959Z,34.75
2022-08-05T10:18:13.891Z,34.69
2022-08-05T10:20:56.060Z,34.74
2022-08-05T10:23:55.609Z,35.00
2022-08-05T10:26:15.022Z,34.99
2022-08-05T10:28:46.317Z,35.41
2022-08-05T10:32:52.877Z,36.03
2022-08-05T10:34:37.043Z,36.25
2022-08-05T10:37:13.145Z,36.55
2022-08-05T10:40:03.196Z,36.71
2022-08-05T10:42:43.840Z,36.73
2022-08-05T10:45:23.954Z,36.77
2022-08-05T10:48:52.699Z,35.88
2022-08-05T10:51:29.365Z,35.59
2022-08-05T10:54:05.697Z,35.67
2022-08-05T10:56:53.098Z,35.85
2022-08-05T11:00:03.451Z,36.11
2022-08-05T11:02:37.973Z,36.08
2022-08-05T11:05:10.775Z,35.71
2022-08-05T11:08:02.848Z,35.77
2022-08-05T11:10:50.277Z,36.07
2022-08-05T11:13:57.778Z,36.29
2022-08-05T11:16:34.031Z,36.12
2022-08-05T11:20:17.018Z,35.91
2022-08-05T11:22:43.834Z,35.50
2022-08-05T11:26:04.250Z,35.22
2022-08-05T11:28:26.846Z,35.08
2022-08-05T11:30:58.722Z,35.17
2022-08-05T11:33:48.413Z,35.69
2022-08-05T11:36:34.698Z,36.06
2022-08-05T11:39:09.497Z,36.10
2022-08-05T11:42:01.370Z,35.79
2022-08-05T11:44:41.163Z,35.72
2022-08-05T11:47:49.655Z,35.74
2022-08-05T11:50:14.151Z,35.59
2022-08-05T11:52:49.679Z,35.44
2022-08-05T11:55:20.414Z,35.51
2022-08-05T11:58:09.328Z,35.36
2022-08-05T12:00:41.617Z,35.24
2022-08-05T12:03:29.436Z,35.46
2022-08-05T12:06:02.911Z,35.26
2022-08-05T12:08:32.846Z,35.14
2022-08-05T12:11:06.281Z,35.52
2022-08-05T12:13:49.376Z,35.68
2022-08-05T12:16:27.053Z,35.98
2022-08-05T12:18:56.003Z,36.35
2022-08-05T12:21:29.826Z,36.71
2022-08-05T12:24:07.750Z,36.95
2022-08-05T12:26:50.878Z,37.13
2022-08-05T12:29:23.053Z,36.95
2022-08-05T12:32:01.823Z,36.32
2022-08-05T12:34:37.515Z,35.96
2022-08-05T12:37:17.353Z,36.15
2022-08-05T12:39:55.300Z,36.31
2022-08-05T12:42:32.414Z,36.26
2022-08-05T12:45:08.695Z,36.28
2022-08-05T12:48:01.066Z,36.44
2022-08-05T12:50:27.426Z,36.71
2022-08-05T12:53:00.461Z,36.71
2022-08-05T12:55:35.296Z,36.85
2022-08-05T12:58:49.408Z,36.74
2022-08-05T13:02:01.454Z,36.68
2022-08-05T13:03:48.723Z,37.05
2022-08-05T13:06:17.973Z,37.06
2022-08-05T13:08:52.464Z,36.90
2022-08-05T13:11:25.462Z,37.04
2022-08-05T13:14:15.986Z,37.45
2022-08-05T13:16:59.687Z,37.76
2022-08-05T13:19:40.415Z,37.57
2022-08-05T13:22:27.970Z,37.06
2022-08-05T13:25:00.344Z,36.37
2022-08-05T13:27:37.765Z,36.68
2022-08-05T13:30:33.583Z,36.91
2022-08-05T13:33:01.173Z,36.83
2022-08-05T13:35:46.974Z,36.93
2022-08-05T13:38:30.362Z,36.94
2022-08-05T13:41:03.961Z,37.15
2022-08-05T13:43:43.990Z,37.31
2022-08-05T13:46:16.331Z,37.07
2022-08-05T13:49:00.944Z,36.96
2022-08-05T13:51:40.096Z,37.09
2022-08-05T13:54:12.290Z,37.13
2022-08-05T13:56:45.217Z,36.95
2022-08-05T13:59:25.041Z,36.80
2022-08-05T14:01:58.649Z,36.84
2022-08-05T14:04:51.864Z,36.68
2022-08-05T14:07:55.536Z,36.57
2022-08-05T14:10:18.955Z,36.70
2022-08-05T14:12:57.718Z,37.04
2022-08-05T14:16:04.742Z,37.07
2022-08-05T14:18:17.646Z,36.98
2022-08-05T14:20:54.931Z,36.90
2022-08-05T14:23:25.496Z,36.76
2022-08-05T14:26:38.439Z,36.88
2022-08-05T14:29:04.213Z,37.20
2022-08-05T14:32:02.188Z,37.43
2022-08-05T14:34:23.703Z,37.59
2022-08-05T14:36:52.300Z,37.53
2022-08-05T14:39:23.587Z,37.10
2022-08-05T14:42:19.613Z,37.00
2022-08-05T14:44:41.255Z,36.82
2022-08-05T14:47:11.992Z,36.80
2022-08-05T14:49:59.400Z,36.72
2022-08-05T14:52:51.997Z,36.78
2022-08-05T14:55:24.718Z,36.90
2022-08-05T14:57:54.445Z,36.42
2022-08-05T15:00:27.893Z,36.05
2022-08-05T15:02:57.227Z,36.11
2022-08-05T15:05:29.605Z,36.03
2022-08-05T15:08:06.432Z,35.93
2022-08-05T15:10:46.189Z,35.54
2022-08-05T15:13:15.340Z,35.31
2022-08-05T15:15:54.867Z,35.18
2022-08-05T15:18:25.293Z,34.69
2022-08-05T15:20:54.866Z,34.21
2022-08-05T15:23:23.294Z,33.96
2022-08-05T15:25:56.622Z,33.83
2022-08-05T15:28:27.987Z,33.70
2022-08-05T15:30:57.443Z,33.37
2022-08-05T15:34:04.706Z,33.30
2022-08-05T15:36:17.343Z,33.28
2022-08-05T15:40:59.156Z,33.22
2022-08-05T15:41:58.420Z,33.18
2022-08-05T15:44:30.223Z,33.15
2022-08-05T15:47:02.171Z,33.14
2022-08-05T15:49:53.764Z,33.06
2022-08-05T15:52:51.839Z,32.87
2022-08-05T15:55:16.172Z,32.68
2022-08-05T15:57:48.881Z,32.54
2022-08-05T16:00:25.954Z,32.45
2022-08-05T16:03:01.413Z,32.36
2022-08-05T16:05:30.605Z,32.27
2022-08-05T16:07:59.041Z,32.24
2022-08-05T16:10:28.640Z,32.22
2022-08-05T16:12:57.810Z,32.14
2022-08-05T16:15:32.232Z,32.08
2022-08-05T16:18:01.269Z,32.06
2022-08-05T16:20:33.332Z,31.93
2022-08-05T16:23:02.098Z,31.82
2022-08-05T16:25:33.853Z,31.75
2022-08-05T16:28:09.722Z,31.74
2022-08-05T16:30:38.724Z,31.70
2022-08-05T16:33:07.315Z,31.65
2022-08-05T16:35:42.436Z,31.60
2022-08-05T16:38:23.877Z,31.55
2022-08-05T16:40:59.597Z,31.46
2022-08-05T16:43:33.354Z,31.34
2022-08-05T16:46:23.486Z,31.26
2022-08-05T16:48:52.702Z,31.22
2022-08-05T16:51:21.110Z,31.19
2022-08-05T16:54:04.112Z,31.13
2022-08-05T16:56:37.205Z,31.05
2022-08-05T16:59:10.653Z,30.93
2022-08-05T17:01:52.694Z,30.81
2022-08-05T17:04:26.495Z,30.68
2022-08-05T17:07:03.182Z,30.61
2022-08-05T17:09:58.262Z,30.57
2022-08-05T17:12:50.570Z,30.53
2022-08-05T17:15:19.692Z,30.45
2022-08-05T17:17:55.222Z,30.35
2022-08-05T17:20:26.719Z,30.22
2022-08-05T17:22:55.523Z,30.11
2022-08-05T17:25:40.116Z,30.00
2022-08-05T17:28:15.559Z,29.89
2022-08-05T17:30:51.872Z,29.79
2022-08-05T17:33:21.352Z,29.70
2022-08-05T17:36:07.793Z,29.62
2022-08-05T17:38:37.739Z,29.50
2022-08-05T17:41:11.570Z,29.40
2022-08-05T17:43:57.326Z,29.29
2022-08-05T17:46:26.362Z,29.17
2022-08-05T17:48:57.960Z,29.06
2022-08-05T17:51:26.982Z,28.96
2022-08-05T17:53:55.405Z,28.85
2022-08-05T17:56:23.684Z,28.74
2022-08-05T17:58:57.178Z,28.65
2022-08-05T18:01:25.738Z,28.54
2022-08-05T18:04:03.531Z,28.44
2022-08-05T18:06:34.210Z,28.30
2022-08-05T18:09:03.509Z,28.15
2022-08-05T18:11:33.558Z,27.98
2022-08-05T18:14:04.485Z,27.82
2022-08-05T18:16:51.524Z,27.69
2022-08-05T18:19:23.068Z,27.53
2022-08-05T18:22:08.227Z,27.36
2022-08-05T18:24:39.904Z,27.16
2022-08-05T18:27:12.618Z,27.03
2022-08-05T18:29:53.716Z,26.91
2022-08-05T18:32:25.136Z,26.82
2022-08-05T18:34:58.065Z,26.70
2022-08-05T18:37:34.440Z,26.59
2022-08-05T18:41:49.926Z,26.49
2022-08-05T18:42:59.197Z,26.37
2022-08-05T18:45:41.404Z,26.28
2022-08-05T18:48:11.415Z,26.22
2022-08-05T18:51:01.666Z,26.22
2022-08-05T18:53:50.202Z,26.24
2022-08-05T18:56:21.657Z,26.27
2022-08-05T18:58:50.927Z,26.28
2022-08-05T19:01:33.390Z,26.28
2022-08-05T19:04:24.029Z,26.24
2022-08-05T19:06:58.282Z,26.21
2022-08-05T19:09:26.717Z,26.19
2022-08-05T19:12:00.165Z,26.13
2022-08-05T19:14:59.382Z,26.08
2022-08-05T19:17:19.617Z,25.98
2022-08-05T19:19:51.445Z,25.83
2022-08-05T19:22:22.907Z,25.68
2022-08-05T19:25:02.557Z,25.51
2022-08-05T19:27:31.260Z,25.35
2022-08-05T19:30:03.034Z,25.24
2022-08-05T19:32:32.683Z,25.14
2022-08-05T19:35:06.381Z,25.05
2022-08-05T19:38:06.339Z,25.01
2022-08-05T19:40:24.321Z,24.97
2022-08-05T19:43:00.806Z,24.91
2022-08-05T19:45:36.740Z,24.82
2022-08-05T19:48:05.805Z,24.77
2022-08-05T19:50:35.376Z,24.70
2022-08-05T19:53:09.380Z,24.72
2022-08-05T19:56:14.155Z,24.81
2022-08-05T19:58:29.238Z,24.88
2022-08-05T20:00:59.138Z,24.91
2022-08-05T20:03:37.957Z,24.90
2022-08-05T20:06:15.399Z,24.87
2022-08-05T20:08:47.606Z,24.82
2022-08-05T20:11:19.583Z,24.76
2022-08-05T20:13:58.367Z,24.69
2022-08-05T20:16:37.370Z,24.61
2022-08-05T20:19:06.245Z,24.55
2022-08-05T20:21:35.122Z,24.47
2022-08-05T20:24:07.455Z,24.39
2022-08-05T20:26:40.148Z,24.29
2022-08-05T20:29:26.909Z,24.21
2022-08-05T20:31:58.304Z,24.10
2022-08-05T20:34:28.083Z,24.03
2022-08-05T20:36:56.298Z,23.98
2022-08-05T20:39:24.462Z,23.95
2022-08-05T20:42:05.329Z,23.94
2022-08-05T20:44:34.595Z,23.92
2022-08-05T20:47:07.777Z,23.92
2022-08-05T20:49:39.597Z,23.91
2022-08-05T20:52:10.787Z,23.91
2022-08-05T20:54:42.770Z,23.91
2022-08-05T20:57:44.021Z,23.91
2022-08-05T21:00:41.524Z,23.90
2022-08-05T21:03:07.801Z,23.90
2022-08-05T21:05:53.594Z,23.89
2022-08-05T21:08:41.354Z,23.84
2022-08-05T21:11:12.695Z,23.80
2022-08-05T21:13:47.910Z,23.78
2022-08-05T21:16:29.462Z,23.77
2022-08-05T21:19:01.102Z,23.76
2022-08-05T21:21:43.933Z,23.76
2022-08-05T21:24:20.040Z,23.76
2022-08-05T21:26:53.525Z,23.78
2022-08-05T21:29:32.078Z,23.78
2022-08-05T21:32:03.952Z,23.72
2022-08-05T21:34:33.111Z,23.54
2022-08-05T21:37:05.207Z,23.42
2022-08-05T21:39:34.739Z,23.32
2022-08-05T21:42:11.938Z,23.20
2022-08-05T21:44:57.861Z,23.06
2022-08-05T21:47:56.721Z,22.93
2022-08-05T21:50:16.694Z,22.80
2022-08-05T21:52:47.342Z,22.69
2022-08-05T21:55:17.252Z,22.60
2022-08-05T21:57:45.989Z,22.54
2022-08-05T22:00:15.227Z,22.48
2022-08-05T22:02:44.012Z,22.44
2022-08-05T22:05:13.986Z,22.38
2022-08-05T22:07:59.303Z,22.33
2022-08-05T22:10:31.003Z,22.26
2022-08-05T22:13:09.368Z,22.20
2022-08-05T22:16:02.728Z,22.14
2022-08-05T22:18:36.072Z,22.10
2022-08-05T22:21:18.856Z,22.07
2022-08-05T22:24:09.152Z,22.04
2022-08-05T22:27:00.400Z,21.96
2022-08-05T22:29:35.178Z,21.88
2022-08-05T22:32:04.181Z,21.80
2022-08-05T22:34:33.504Z,21.74
2022-08-05T22:37:03.956Z,21.69
2022-08-05T22:39:34.801Z,21.69
2022-08-05T22:42:12.705Z,21.73
2022-08-05T22:44:48.342Z,21.80
2022-08-05T22:47:29.772Z,21.85
2022-08-05T22:50:22.811Z,21.87
2022-08-05T22:52:52.843Z,21.87
2022-08-05T22:55:23.240Z,21.88
2022-08-05T22:57:53.039Z,21.88
2022-08-05T23:00:23.471Z,21.86
2022-08-05T23:02:53.749Z,21.85
2022-08-05T23:05:23.125Z,21.84
2022-08-05T23:07:51.717Z,21.83
2022-08-05T23:10:24.034Z,21.77
2022-08-05T23:12:55.212Z,21.72
2022-08-05T23:15:29.227Z,21.69
2022-08-05T23:18:01.956Z,21.66
2022-08-05T23:20:33.048Z,21.62
2022-08-05T23:23:07.984Z,21.53
2022-08-05T23:25:53.688Z,21.47
2022-08-05T23:28:29.104Z,21.43
2022-08-05T23:31:15.756Z,21.41
2022-08-05T23:34:04.334Z,21.37
2022-08-05T23:36:41.392Z,21.35
2022-08-05T23:39:17.409Z,21.34
2022-08-05T23:42:00.882Z,21.31
2022-08-05T23:44:31.306Z,21.26
2022-08-05T23:47:02.595Z,21.19
2022-08-05T23:49:47.192Z,21.10
2022-08-05T23:52:30.546Z,21.01
2022-08-05T23:55:10.909Z,20.94
2022-08-05T23:57:41.200Z,20.89
